createdAt,value
2023-06-29T00:00:23.993Z,61.02
2023-06-29T00:02:50.998Z,61.44
2023-06-29T00:05:19.638Z,61.40
2023-06-29T00:07:46.120Z,61.29
2023-06-29T00:10:12.687Z,61.23
2023-06-29T00:12:39.236Z,61.06
2023-06-29T00:15:06.663Z,61.25
2023-06-29T00:17:33.184Z,60.82
2023-06-29T00:20:01.941Z,61.47
2023-06-29T00:22:28.521Z,61.45
2023-06-29T00:24:59.600Z,61.57
2023-06-29T00:27:26.361Z,61.81
2023-06-29T00:29:52.899Z,62.17
2023-06-29T00:32:19.514Z,61.76
2023-06-29T00:34:46.432Z,62.28
2023-06-29T00:37:12.927Z,61.89
2023-06-29T00:39:40.240Z,62.00
2023-06-29T00:42:07.144Z,62.20
2023-06-29T00:44:33.720Z,62.34
2023-06-29T00:47:00.857Z,62.18
2023-06-29T00:49:28.640Z,62.04
2023-06-29T00:51:56.984Z,62.05
2023-06-29T00:54:26.260Z,62.05
2023-06-29T00:56:53.567Z,62.72
2023-06-29T00:59:20.749Z,63.07
2023-06-29T01:01:47.561Z,62.71
2023-06-29T01:04:18.710Z,62.97
2023-06-29T01:07:04.111Z,63.17
2023-06-29T01:09:34.092Z,63.18
2023-06-29T01:12:02.229Z,63.42
2023-06-29T01:14:31.819Z,63.21
2023-06-29T01:16:59.624Z,63.21
2023-06-29T01:19:29.841Z,62.94
2023-06-29T01:22:28.231Z,63.23
2023-06-29T01:24:57.365Z,63.18
2023-06-29T01:27:23.817Z,63.06
2023-06-29T01:29:54.492Z,63.10
2023-06-29T01:32:21.027Z,62.83
2023-06-29T01:34:48.090Z,63.11
2023-06-29T01:37:20.707Z,63.54
2023-06-29T01:39:55.112Z,64.00
2023-06-29T01:42:22.131Z,64.07
2023-06-29T01:44:49.393Z,63.92
2023-06-29T01:47:18.226Z,63.88
2023-06-29T01:49:45.098Z,64.08
2023-06-29T01:52:11.886Z,64.04
2023-06-29T01:54:38.528Z,64.63
2023-06-29T01:57:08.532Z,64.97
2023-06-29T01:59:35.976Z,64.60
2023-06-29T02:02:03.049Z,64.77
2023-06-29T02:04:32.168Z,64.60
2023-06-29T02:06:58.711Z,65.09
2023-06-29T02:09:25.274Z,64.73
2023-06-29T02:11:51.751Z,64.17
2023-06-29T02:14:18.410Z,64.08
2023-06-29T02:16:50.251Z,63.73
2023-06-29T02:19:16.731Z,64.57
2023-06-29T02:21:44.770Z,64.94
2023-06-29T02:24:11.601Z,64.95
2023-06-29T02:26:38.108Z,65.02
2023-06-29T02:29:05.033Z,64.87
2023-06-29T02:31:31.569Z,65.32
2023-06-29T02:33:58.749Z,66.17
2023-06-29T02:36:25.852Z,66.09
2023-06-29T02:38:52.463Z,65.91
2023-06-29T02:41:21.025Z,65.83
2023-06-29T02:43:47.511Z,66.19
2023-06-29T02:46:14.045Z,66.26
2023-06-29T02:48:43.395Z,66.11
2023-06-29T02:51:10.458Z,65.88
2023-06-29T02:53:38.623Z,65.93
2023-06-29T02:56:05.138Z,66.36
2023-06-29T02:58:31.594Z,66.02
2023-06-29T03:00:59.020Z,66.40
2023-06-29T03:03:27.415Z,66.25
2023-06-29T03:05:53.913Z,66.18
2023-06-29T03:08:20.509Z,65.76
2023-06-29T03:10:47.044Z,65.47
2023-06-29T03:13:13.538Z,65.80
2023-06-29T03:15:40.094Z,65.64
2023-06-29T03:18:06.605Z,65.89
2023-06-29T03:20:33.124Z,65.81
2023-06-29T03:22:59.624Z,65.79
2023-06-29T03:25:26.140Z,66.10
2023-06-29T03:27:52.642Z,66.31
2023-06-29T03:30:19.141Z,66.17
2023-06-29T03:32:45.592Z,66.21
2023-06-29T03:35:12.118Z,66.37
2023-06-29T03:37:38.599Z,66.45
2023-06-29T03:40:05.745Z,66.69
2023-06-29T03:42:32.219Z,66.78
2023-06-29T03:44:58.684Z,66.76
2023-06-29T03:47:25.278Z,66.91
2023-06-29T03:49:52.035Z,67.13
2023-06-29T03:52:18.502Z,66.98
2023-06-29T03:54:44.989Z,66.74
2023-06-29T03:57:11.503Z,66.30
2023-06-29T03:59:37.993Z,67.05
2023-06-29T04:02:05.023Z,66.92
2023-06-29T04:04:31.614Z,66.95
2023-06-29T04:06:58.139Z,67.26
2023-06-29T04:09:24.653Z,67.38
2023-06-29T04:11:51.158Z,67.43
2023-06-29T04:14:17.749Z,67.28
2023-06-29T04:16:44.241Z,67.68
2023-06-29T04:19:10.818Z,67.79
2023-06-29T04:21:37.364Z,67.38
2023-06-29T04:24:04.245Z,67.69
2023-06-29T04:26:30.734Z,67.66
2023-06-29T04:29:02.061Z,68.05
2023-06-29T04:31:29.416Z,67.82
2023-06-29T04:33:59.082Z,67.65
2023-06-29T04:36:26.560Z,67.73
2023-06-29T04:38:53.169Z,67.73
2023-06-29T04:41:19.716Z,67.65
2023-06-29T04:43:48.807Z,67.67
2023-06-29T04:46:15.330Z,67.66
2023-06-29T04:48:41.863Z,67.52
2023-06-29T04:51:08.397Z,67.32
2023-06-29T04:53:35.753Z,67.56
2023-06-29T04:56:03.082Z,67.44
2023-06-29T04:58:29.820Z,67.67
2023-06-29T05:00:56.537Z,67.91
2023-06-29T05:03:24.993Z,67.62
2023-06-29T05:05:51.937Z,67.52
2023-06-29T05:08:18.417Z,67.45
2023-06-29T05:10:45.070Z,67.39
2023-06-29T05:13:11.642Z,67.30
2023-06-29T05:15:38.152Z,67.05
2023-06-29T05:18:04.725Z,67.04
2023-06-29T05:20:31.230Z,66.69
2023-06-29T05:22:57.767Z,66.75
2023-06-29T05:25:24.288Z,66.76
2023-06-29T05:27:50.737Z,66.98
2023-06-29T05:30:17.845Z,67.05
2023-06-29T05:32:44.650Z,67.12
2023-06-29T05:35:11.207Z,67.28
2023-06-29T05:37:37.703Z,67.07
2023-06-29T05:40:04.894Z,66.66
2023-06-29T05:42:31.381Z,66.71
2023-06-29T05:44:57.943Z,66.30
2023-06-29T05:47:24.513Z,66.20
2023-06-29T05:49:51.116Z,65.99
2023-06-29T05:52:17.682Z,65.46
2023-06-29T05:54:44.171Z,65.55
2023-06-29T05:57:10.669Z,65.66
2023-06-29T05:59:37.289Z,64.90
2023-06-29T06:02:03.889Z,64.29
2023-06-29T06:04:30.415Z,63.52
2023-06-29T06:06:56.927Z,63.32
2023-06-29T06:09:23.421Z,64.04
2023-06-29T06:11:50.314Z,63.98
2023-06-29T06:14:16.787Z,63.32
2023-06-29T06:16:43.335Z,63.35
2023-06-29T06:19:10.067Z,62.79
2023-06-29T06:21:36.537Z,62.75
2023-06-29T06:24:03.064Z,63.20
2023-06-29T06:26:29.589Z,62.79
2023-06-29T06:28:56.079Z,62.85
2023-06-29T06:31:33.294Z,63.21
2023-06-29T06:34:01.001Z,64.03
2023-06-29T06:36:28.764Z,64.37
2023-06-29T06:38:55.202Z,64.62
2023-06-29T06:41:22.217Z,63.81
2023-06-29T06:43:48.787Z,60.90
2023-06-29T06:46:15.345Z,59.67
2023-06-29T06:48:41.893Z,58.44
2023-06-29T06:51:08.381Z,58.44
2023-06-29T06:53:34.924Z,58.12
2023-06-29T06:56:01.718Z,57.88
2023-06-29T06:58:28.200Z,57.56
2023-06-29T07:00:54.753Z,57.14
2023-06-29T07:03:21.268Z,57.17
2023-06-29T07:05:47.956Z,57.28
2023-06-29T07:08:14.416Z,56.85
2023-06-29T07:10:41.057Z,56.21
2023-06-29T07:13:07.707Z,55.90
2023-06-29T07:15:34.201Z,55.14
2023-06-29T07:18:00.697Z,54.44
2023-06-29T07:25:25.982Z,53.16
2023-06-29T07:27:52.466Z,52.43
2023-06-29T07:30:18.957Z,52.55
2023-06-29T07:32:45.489Z,52.25
2023-06-29T07:35:13.242Z,51.47
2023-06-29T07:37:39.740Z,50.89
2023-06-29T07:40:07.233Z,50.19
2023-06-29T07:42:39.301Z,49.32
2023-06-29T07:45:07.346Z,48.75
2023-06-29T07:47:34.023Z,48.83
2023-06-29T07:50:00.638Z,48.62
2023-06-29T07:52:27.990Z,48.34
2023-06-29T07:54:54.516Z,47.97
2023-06-29T07:59:50.435Z,48.53
2023-06-29T08:02:17.197Z,48.05
2023-06-29T08:07:14.065Z,48.10
2023-06-29T08:09:40.758Z,47.98
2023-06-29T08:12:07.774Z,47.93
2023-06-29T08:14:35.935Z,47.26
2023-06-29T08:17:04.053Z,47.98
2023-06-29T08:19:30.632Z,46.90
2023-06-29T08:21:57.973Z,46.84
2023-06-29T08:24:24.598Z,47.27
2023-06-29T08:26:51.095Z,47.48
2023-06-29T08:29:17.625Z,47.86
2023-06-29T08:31:44.258Z,48.27
2023-06-29T08:34:10.982Z,46.03
2023-06-29T08:36:37.663Z,47.37
2023-06-29T08:39:04.154Z,47.94
2023-06-29T08:41:30.712Z,47.40
2023-06-29T08:43:57.292Z,47.79
2023-06-29T08:46:24.917Z,46.96
2023-06-29T08:48:51.578Z,47.47
2023-06-29T08:51:19.808Z,46.79
2023-06-29T08:53:47.245Z,46.27
2023-06-29T08:56:14.605Z,46.00
2023-06-29T08:58:41.515Z,47.33
2023-06-29T09:01:08.312Z,46.06
2023-06-29T09:03:36.992Z,46.97
2023-06-29T09:06:04.734Z,46.83
2023-06-29T09:08:31.728Z,45.75
2023-06-29T09:10:58.274Z,45.77
2023-06-29T09:13:27.975Z,44.64
2023-06-29T09:15:55.519Z,44.31
2023-06-29T09:18:26.213Z,45.09
2023-06-29T09:20:56.261Z,45.02
2023-06-29T09:23:23.621Z,44.10
2023-06-29T09:25:53.478Z,44.52
2023-06-29T09:28:19.950Z,45.02
2023-06-29T09:30:46.692Z,44.50
2023-06-29T09:33:14.786Z,43.61
2023-06-29T09:35:45.645Z,44.38
2023-06-29T09:38:12.174Z,45.09
2023-06-29T09:40:52.850Z,44.53
2023-06-29T09:43:26.936Z,43.97
2023-06-29T09:46:05.164Z,43.98
2023-06-29T09:51:02.103Z,42.88
2023-06-29T09:53:30.513Z,42.71
2023-06-29T09:55:59.849Z,41.95
2023-06-29T09:58:30.273Z,42.34
2023-06-29T10:01:00.448Z,41.68
2023-06-29T10:03:32.777Z,42.19
2023-06-29T10:06:09.833Z,42.84
2023-06-29T10:08:37.761Z,43.11
2023-06-29T10:11:04.963Z,43.23
2023-06-29T10:13:38.290Z,42.91
2023-06-29T10:16:09.851Z,43.80
2023-06-29T10:18:40.302Z,42.54
2023-06-29T10:21:07.551Z,42.53
2023-06-29T10:23:35.745Z,42.24
2023-06-29T10:26:05.379Z,42.48
2023-06-29T10:28:32.315Z,41.23
2023-06-29T10:31:00.754Z,41.35
2023-06-29T10:33:27.628Z,42.05
2023-06-29T10:35:59.067Z,42.86
2023-06-29T10:38:31.551Z,40.98
2023-06-29T10:40:58.353Z,39.38
2023-06-29T10:44:00.760Z,41.25
2023-06-29T10:46:47.131Z,39.98
2023-06-29T10:49:27.473Z,40.37
2023-06-29T10:51:56.133Z,39.41
2023-06-29T10:54:26.427Z,39.75
2023-06-29T10:56:59.833Z,39.94
2023-06-29T10:59:28.087Z,39.47
2023-06-29T11:01:55.373Z,39.69
2023-06-29T11:04:25.221Z,39.64
2023-06-29T11:06:52.020Z,39.78
2023-06-29T11:09:20.556Z,39.72
2023-06-29T11:11:49.095Z,40.00
2023-06-29T11:14:16.342Z,39.51
2023-06-29T11:16:43.208Z,40.03
2023-06-29T11:22:00.897Z,38.70
2023-06-29T11:24:27.869Z,38.49
2023-06-29T11:26:54.876Z,38.27
2023-06-29T11:29:22.354Z,37.19
2023-06-29T11:31:49.159Z,37.41
2023-06-29T11:34:15.685Z,38.42
2023-06-29T11:36:47.503Z,38.02
2023-06-29T11:39:19.684Z,38.60
2023-06-29T11:41:48.478Z,38.87
2023-06-29T11:44:15.627Z,39.25
2023-06-29T11:46:44.047Z,39.59
2023-06-29T11:49:10.547Z,39.76
2023-06-29T11:51:40.193Z,39.44
2023-06-29T11:54:08.414Z,39.75
2023-06-29T11:56:35.728Z,39.75
2023-06-29T11:59:08.791Z,40.44
2023-06-29T12:01:37.128Z,40.45
2023-06-29T12:04:08.405Z,39.94
2023-06-29T12:06:35.055Z,39.57
2023-06-29T12:09:10.103Z,38.21
2023-06-29T12:11:36.626Z,38.63
2023-06-29T12:14:03.440Z,38.40
2023-06-29T12:19:00.574Z,37.77
2023-06-29T12:21:27.331Z,37.61
2023-06-29T12:23:54.135Z,37.73
2023-06-29T12:26:22.316Z,37.35
2023-06-29T12:28:48.871Z,36.48
2023-06-29T12:31:15.364Z,36.04
2023-06-29T12:33:41.867Z,35.89
2023-06-29T12:36:08.362Z,36.76
2023-06-29T12:38:34.830Z,36.16
2023-06-29T12:41:01.310Z,37.10
2023-06-29T12:43:27.786Z,37.14
2023-06-29T12:45:54.211Z,37.93
2023-06-29T12:48:20.697Z,37.85
2023-06-29T12:50:47.529Z,38.17
2023-06-29T12:53:14.224Z,38.38
2023-06-29T12:55:40.963Z,37.75
2023-06-29T12:58:07.524Z,39.10
2023-06-29T13:00:35.194Z,39.59
2023-06-29T13:03:08.580Z,38.67
2023-06-29T13:05:36.320Z,39.32
2023-06-29T13:08:02.849Z,39.70
2023-06-29T13:10:31.208Z,39.57
2023-06-29T13:12:59.456Z,39.54
2023-06-29T13:15:26.052Z,40.11
2023-06-29T13:17:52.962Z,40.47
2023-06-29T13:20:19.749Z,39.73
2023-06-29T13:22:46.318Z,40.11
2023-06-29T13:25:13.311Z,40.23
2023-06-29T13:27:42.486Z,40.13
2023-06-29T13:30:09.799Z,40.30
2023-06-29T13:32:36.365Z,40.77
2023-06-29T13:35:04.514Z,40.22
2023-06-29T13:37:31.020Z,41.06
2023-06-29T13:39:57.536Z,40.95
2023-06-29T13:42:24.050Z,40.40
2023-06-29T13:44:50.690Z,40.66
2023-06-29T13:47:23.219Z,40.73
2023-06-29T13:49:50.332Z,40.47
2023-06-29T13:52:16.935Z,40.07
2023-06-29T13:54:43.715Z,40.50
2023-06-29T13:57:10.484Z,40.47
2023-06-29T13:59:36.956Z,40.43
2023-06-29T14:02:03.591Z,40.73
2023-06-29T14:04:30.127Z,40.66
2023-06-29T14:06:56.664Z,40.30
2023-06-29T14:09:23.199Z,40.15
2023-06-29T14:11:49.930Z,40.66
2023-06-29T14:14:16.487Z,40.25
2023-06-29T14:16:44.137Z,40.80
2023-06-29T14:19:10.688Z,41.04
2023-06-29T14:21:37.184Z,40.60
2023-06-29T14:24:03.812Z,40.04
2023-06-29T14:26:30.280Z,40.26
2023-06-29T14:28:56.729Z,40.39
2023-06-29T14:31:23.267Z,40.61
2023-06-29T14:33:49.887Z,40.07
2023-06-29T14:36:16.524Z,41.22
2023-06-29T14:38:43.014Z,41.33
2023-06-29T14:41:09.533Z,40.64
2023-06-29T14:43:35.997Z,40.49
2023-06-29T14:46:02.487Z,40.92
2023-06-29T14:48:29.053Z,40.72
2023-06-29T14:50:55.635Z,40.35
2023-06-29T14:53:23.322Z,40.73
2023-06-29T14:55:50.561Z,40.12
2023-06-29T14:58:17.983Z,40.02
2023-06-29T15:00:45.308Z,40.24
2023-06-29T15:03:12.247Z,40.41
2023-06-29T15:05:38.854Z,40.15
2023-06-29T15:08:05.332Z,40.70
2023-06-29T15:10:31.978Z,40.76
2023-06-29T15:12:58.463Z,39.98
2023-06-29T15:15:25.018Z,40.44
2023-06-29T15:17:51.664Z,39.60
2023-06-29T15:20:19.132Z,39.17
2023-06-29T15:22:45.974Z,38.82
2023-06-29T15:25:12.619Z,38.33
2023-06-29T15:27:39.399Z,37.72
2023-06-29T15:30:06.620Z,36.21
2023-06-29T15:32:33.635Z,35.64
2023-06-29T15:35:01.748Z,35.61
2023-06-29T15:37:28.224Z,33.90
2023-06-29T15:39:54.695Z,33.70
2023-06-29T15:42:21.198Z,34.74
2023-06-29T15:44:47.779Z,33.99
2023-06-29T15:47:14.536Z,33.80
2023-06-29T15:49:41.020Z,34.54
2023-06-29T15:52:07.703Z,34.49
2023-06-29T15:54:34.188Z,33.33
2023-06-29T15:57:00.651Z,34.48
2023-06-29T15:59:27.226Z,34.64
2023-06-29T16:01:53.796Z,35.09
2023-06-29T16:04:21.510Z,34.71
2023-06-29T16:06:48.150Z,33.76
2023-06-29T16:09:14.696Z,33.03
2023-06-29T16:11:41.265Z,32.37
2023-06-29T16:14:07.833Z,31.97
2023-06-29T16:16:34.341Z,31.31
2023-06-29T16:19:01.047Z,30.36
2023-06-29T16:21:27.645Z,31.28
2023-06-29T16:23:54.160Z,30.73
2023-06-29T16:26:20.891Z,31.21
2023-06-29T16:28:47.410Z,31.80
2023-06-29T16:31:14.074Z,30.87
2023-06-29T16:33:40.922Z,30.54
2023-06-29T16:36:07.588Z,29.98
2023-06-29T16:38:34.153Z,30.40
2023-06-29T16:41:00.659Z,30.69
2023-06-29T16:43:27.177Z,30.92
2023-06-29T16:45:53.648Z,30.86
2023-06-29T16:48:20.117Z,29.04
2023-06-29T16:50:47.148Z,29.21
2023-06-29T16:53:13.667Z,29.69
2023-06-29T16:55:40.150Z,29.72
2023-06-29T16:58:06.657Z,28.96
2023-06-29T17:00:33.183Z,29.86
2023-06-29T17:02:59.744Z,30.03
2023-06-29T17:05:27.959Z,29.21
2023-06-29T17:07:56.720Z,30.42
2023-06-29T17:10:23.559Z,30.74
2023-06-29T17:12:50.065Z,30.53
2023-06-29T17:15:16.619Z,31.98
2023-06-29T17:17:43.194Z,31.86
2023-06-29T17:20:10.366Z,31.95
2023-06-29T17:22:36.868Z,32.92
2023-06-29T17:25:03.513Z,33.58
2023-06-29T17:27:29.996Z,33.57
2023-06-29T17:29:56.479Z,33.88
2023-06-29T17:32:23.090Z,34.08
2023-06-29T17:34:49.574Z,33.70
2023-06-29T17:37:16.095Z,34.71
2023-06-29T17:39:42.599Z,34.54
2023-06-29T17:42:19.744Z,34.92
2023-06-29T17:44:47.071Z,36.06
2023-06-29T17:47:13.569Z,35.38
2023-06-29T17:49:40.131Z,35.82
2023-06-29T17:52:07.053Z,36.54
2023-06-29T17:54:33.548Z,36.38
2023-06-29T17:57:00.388Z,36.56
2023-06-29T17:59:26.858Z,36.95
2023-06-29T18:01:53.403Z,37.84
2023-06-29T18:04:20.646Z,37.22
2023-06-29T18:06:47.214Z,37.62
2023-06-29T18:09:14.903Z,37.61
2023-06-29T18:11:41.463Z,37.43
2023-06-29T18:14:08.025Z,37.88
2023-06-29T18:16:35.026Z,38.21
2023-06-29T18:19:02.984Z,38.31
2023-06-29T18:21:29.508Z,38.74
2023-06-29T18:23:56.022Z,38.63
2023-06-29T18:26:23.645Z,38.58
2023-06-29T18:28:50.274Z,39.06
2023-06-29T18:31:17.018Z,38.95
2023-06-29T18:33:43.641Z,38.94
2023-06-29T18:36:10.279Z,39.79
2023-06-29T18:38:36.979Z,39.75
2023-06-29T18:41:03.513Z,39.84
2023-06-29T18:43:30.038Z,40.08
2023-06-29T18:45:56.581Z,40.32
2023-06-29T18:48:23.167Z,40.38
2023-06-29T18:50:49.667Z,40.56
2023-06-29T18:53:16.191Z,41.07
2023-06-29T18:55:42.720Z,40.91
2023-06-29T18:58:09.243Z,41.43
2023-06-29T19:00:36.889Z,41.26
2023-06-29T19:03:03.485Z,41.13
2023-06-29T19:05:30.944Z,41.40
2023-06-29T19:07:57.571Z,41.54
2023-06-29T19:10:24.273Z,41.45
2023-06-29T19:12:50.770Z,41.71
2023-06-29T19:15:17.341Z,42.05
2023-06-29T19:17:43.972Z,42.03
2023-06-29T19:20:11.187Z,42.22
2023-06-29T19:22:37.647Z,42.58
2023-06-29T19:25:04.559Z,42.78
2023-06-29T19:27:31.068Z,42.88
2023-06-29T19:29:57.568Z,42.98
2023-06-29T19:32:24.063Z,43.54
2023-06-29T19:34:51.456Z,43.80
2023-06-29T19:37:18.405Z,44.20
2023-06-29T19:39:44.907Z,44.26
2023-06-29T19:42:11.374Z,44.55
2023-06-29T19:44:37.844Z,44.80
2023-06-29T19:47:04.785Z,45.29
2023-06-29T19:49:31.274Z,46.07
2023-06-29T19:51:58.806Z,46.20
2023-06-29T19:54:25.986Z,46.02
2023-06-29T19:56:52.575Z,46.51
2023-06-29T19:59:19.119Z,46.16
2023-06-29T20:01:45.614Z,46.55
2023-06-29T20:04:12.259Z,46.98
2023-06-29T20:06:38.938Z,46.72
2023-06-29T20:09:05.435Z,47.50
2023-06-29T20:11:31.949Z,47.97
2023-06-29T20:13:58.515Z,48.34
2023-06-29T20:16:25.149Z,48.24
2023-06-29T20:18:52.503Z,47.83
2023-06-29T20:21:19.298Z,47.75
2023-06-29T20:23:51.313Z,48.15
2023-06-29T20:26:18.871Z,48.74
2023-06-29T20:28:45.687Z,48.79
2023-06-29T20:31:12.184Z,49.11
2023-06-29T20:33:38.746Z,48.94
2023-06-29T20:36:05.727Z,49.22
2023-06-29T20:38:32.209Z,48.79
2023-06-29T20:40:58.691Z,48.94
2023-06-29T20:43:25.572Z,48.56
2023-06-29T20:45:52.502Z,48.82
2023-06-29T20:48:19.174Z,48.75
2023-06-29T20:50:45.644Z,48.71
2023-06-29T20:53:12.143Z,48.50
2023-06-29T20:55:38.629Z,49.64
2023-06-29T20:58:05.407Z,50.66
2023-06-29T21:00:33.836Z,50.37
2023-06-29T21:03:00.504Z,50.07
2023-06-29T21:05:27.497Z,50.34
2023-06-29T21:07:54.239Z,50.68
2023-06-29T21:10:21.012Z,51.23
2023-06-29T21:12:49.432Z,51.00
2023-06-29T21:15:16.140Z,50.69
2023-06-29T21:17:42.740Z,50.75
2023-06-29T21:20:09.740Z,50.89
2023-06-29T21:22:36.788Z,51.54
2023-06-29T21:25:04.632Z,51.70
2023-06-29T21:27:32.418Z,52.13
2023-06-29T21:29:59.267Z,51.89
2023-06-29T21:32:25.898Z,51.92
2023-06-29T21:34:52.566Z,52.22
2023-06-29T21:37:20.994Z,51.92
2023-06-29T21:39:47.498Z,52.06
2023-06-29T21:42:14.223Z,51.90
2023-06-29T21:44:40.759Z,51.98
2023-06-29T21:47:07.495Z,53.62
2023-06-29T21:49:34.284Z,53.46
2023-06-29T21:52:00.768Z,53.45
2023-06-29T21:54:27.315Z,53.83
2023-06-29T21:56:54.146Z,53.46
2023-06-29T21:59:20.753Z,53.86
2023-06-29T22:01:47.493Z,53.78
2023-06-29T22:04:14.443Z,53.92
2023-06-29T22:06:41.103Z,53.69
2023-06-29T22:09:07.814Z,53.77
2023-06-29T22:14:01.023Z,54.14
2023-06-29T22:16:29.259Z,53.78
2023-06-29T22:18:56.838Z,54.15
2023-06-29T22:21:25.308Z,55.15
2023-06-29T22:23:53.070Z,55.46
2023-06-29T22:26:19.771Z,56.79
2023-06-29T22:28:46.784Z,56.78
2023-06-29T22:31:15.338Z,56.99
2023-06-29T22:33:41.991Z,57.49
2023-06-29T22:36:08.575Z,57.53
2023-06-29T22:38:35.938Z,57.22
2023-06-29T22:41:05.483Z,57.26
2023-06-29T22:43:32.879Z,56.97
2023-06-29T22:45:59.529Z,56.19
2023-06-29T22:48:26.068Z,56.47
2023-06-29T22:50:52.651Z,57.19
2023-06-29T22:53:19.331Z,57.24
2023-06-29T22:55:46.041Z,57.49
2023-06-29T22:58:22.196Z,56.46
2023-06-29T23:00:48.672Z,56.45
2023-06-29T23:03:15.352Z,56.91
2023-06-29T23:05:41.838Z,56.15
2023-06-29T23:08:09.728Z,56.82
2023-06-29T23:10:37.424Z,56.83
2023-06-29T23:13:03.904Z,56.43
2023-06-29T23:15:30.648Z,56.71
2023-06-29T23:18:00.177Z,56.87
2023-06-29T23:20:27.304Z,57.15
2023-06-29T23:22:54.203Z,56.89
2023-06-29T23:25:20.659Z,57.17
2023-06-29T23:27:47.166Z,57.44
2023-06-29T23:30:15.181Z,57.69
2023-06-29T23:32:42.180Z,57.69
2023-06-29T23:35:09.991Z,57.69
2023-06-29T23:37:37.538Z,57.37
2023-06-29T23:40:10.245Z,57.19
2023-06-29T23:42:40.273Z,57.38
2023-06-29T23:45:10.888Z,57.37
2023-06-29T23:47:40.457Z,57.39
2023-06-29T23:50:10.663Z,56.66
2023-06-29T23:52:37.138Z,56.95
2023-06-29T23:55:04.029Z,57.41
2023-06-29T23:57:30.607Z,57.82
2023-06-29T23:59:57.102Z,58.22
